AirNav   Everest Fuels
 
 896 users online  

1MI3 Black River Ranch Airport
Onaway, Michigan, USA

GOING TO ONAWAY?


FAA INFORMATION EFFECTIVE 21 MAY 2020

Location

FAA Identifier: 1MI3
Lat/Long: 45-11-45.0440N 084-19-18.0540W
45-11.750733N 084-19.300900W
45.1958456,-84.3216817
(estimated)
Elevation: 880 ft. / 268 m (estimated)
Variation: 06W (1985)
From city: 10 miles SW of ONAWAY, MI
Time zone: UTC -4 (UTC -5 during Standard Time)
Zip code: 49765

Airport Operations

Airport use: Private use. Permission required prior to landing
Activation date: 11/1948
Control tower: no
ARTCC: MINNEAPOLIS CENTER
FSS: LANSING FLIGHT SERVICE STATION
Attendance: UNATNDD
Wind indicator: no
Segmented circle: no

Airport Communications

WX ASOS at GLR (20 nm SW): 118.375 (989-732-1571)

Nearby radio navigation aids

VOR radial/distance  VOR name  Freq  Var
GLRr062/19.6GAYLORD VOR/DME109.2006W
PLNr157/29.8PELLSTON VORTAC111.8006W
APNr289/33.1ALPENA VORTAC108.8007W
CGGr035/(35.4)GRAYLING VOR109.8006W

 
NDB name  Hdg/Dist  Freq  Var  ID
GRAYLING045/34.335906WGYG --. -.-- --.

Airport Services

Airframe service: NONE
Powerplant service: NONE

Runway Information

Runway E/W

Dimensions: 3900 x 60 ft. / 1189 x 18 m
Surface: asphalt
RUNWAY E  RUNWAY W
Traffic pattern: leftleft
Obstructions: nonepline

Airport Ownership and Management from official FAA records

Ownership: Privately-owned
Manager: TIM MICHIEL
9410 CLARK BRIDGE ROAD
ONAWAY, MI 49765
Phone 989-733-8375

Airport Operational Statistics

Aircraft based on the field: 5
Single engine airplanes: 2
Multi engine airplanes: 1
Jet airplanes: 2
    

Additional Remarks

FOR CD CTC MINNEAPOLIS ARTCC AT 651-463-5588.

Instrument Procedures

There are no published instrument procedures at 1MI3.

Some nearby airports with instrument procedures:

KGLR - Gaylord Regional Airport (20 nm SW)
KPZQ - Presque Isle County Airport (25 nm NE)
KBFA - Boyne Mountain Airport (26 nm W)
N98 - Boyne City Municipal Airport (28 nm W)
KMGN - Harbor Springs Airport (29 nm NW)
 
Loc | Ops | Rwys | IFR | FBO | Links
Com | Nav | Svcs | Stats | Notes
Area around 1MI3 (Black River Ranch Airport)
 
Road maps at: MapQuest Bing Google
 
Aerial photo
No photo
 
Sectional chart

 
Airport distance calculator
Flying to Black River Ranch Airport? Find the distance to fly.

From to 1MI3

Sunrise and sunset
Times for 03-Jun-2020
 Local
(UTC-4)
 Zulu
(UTC)
Morning civil twilight05:1609:16
Sunrise05:5309:53
Sunset21:1901:19
Evening civil twilight21:5501:55

Current date and time
Zulu (UTC)  04-Jun-2020 02:14:58
Local (UTC-4)  03-Jun-2020 22:14:58
 
METAR
KGLR 
19nm SW 
040153Z AUTO 36003KT 10SM FEW085 21/12 A2974 RMK AO2 SLP067 T02110117
KPZQ 
25nm NE 
040155Z AUTO 29007KT 10SM BKN080 BKN090 19/11 A2974 RMK AO2 T01860114
KSLH 
28nm N 
040156Z AUTO 30005KT 10SM CLR 17/12 A2973 RMK AO2 T01670123
KMGN 
29nm NW 
040156Z AUTO 22005KT 10SM SCT065 13/13 A2974 RMK AO2 T01310131
KPLN 
30nm NW 
040154Z AUTO 25003KT 10SM CLR 16/11 A2975 RMK AO2 SLP072 T01560111
KAPN 
33nm E 
040154Z AUTO 11003KT 10SM OVC090 19/12 A2973 RMK AO2 SLP064 T01940117
KGOV 
35nm SW 
040158Z AUTO 00000KT 8SM -RA SCT090 19/13 A2972 RMK AO2 RAB12E28RAB29 SLP065 P0000 T01900128 $
TAF
KPLN 
30nm NW 
031747Z 0318/0418 31006KT P6SM SKC FM032000 29007KT P6SM FEW250 FM040200 VRB03KT P6SM FEW120 FM040400 00000KT P6SM FEW250 FM041400 VRB03KT P6SM FEW200
KAPN 
33nm E 
031747Z 0318/0418 32009KT P6SM SKC FM040000 VRB04KT P6SM FEW250 FM040300 00000KT P6SM FEW120 FM041000 00000KT P6SM FEW250 FM041400 VRB03KT P6SM FEW250
NOTAMs
Click for the latest NOTAMs
NOTAMs are issued by the DoD/FAA and will open in a separate window not controlled by AirNav.

 

 
 

Would you like to see your business listed on this page?

 If your business provides an interesting product or service to pilots, flight crews, aircraft, or users of the Black River Ranch Airport, you should consider listing it here.  To start the listing process, click on the button below
 
Add a business
 

Other Pages about Black River Ranch Airport

Update a link
 
Copyright © AirNav, LLC. All rights reserved. Privacy Policy  Contact